createdAt,value
2018-12-06T00:00:49.183Z,8.63
2018-12-06T00:03:17.352Z,10.57
2018-12-06T00:05:45.563Z,7.30
2018-12-06T00:08:18.008Z,6.63
2018-12-06T00:10:46.279Z,8.23
2018-12-06T00:13:14.828Z,5.50
2018-12-06T00:15:43.511Z,6.87
2018-12-06T00:18:12.859Z,8.30
2018-12-06T00:20:41.061Z,9.20
2018-12-06T00:23:09.399Z,7.27
2018-12-06T00:25:38.203Z,7.28
2018-12-06T00:28:06.405Z,8.90
2018-12-06T00:30:41.303Z,6.93
2018-12-06T00:33:09.836Z,4.70
2018-12-06T00:35:38.811Z,9.60
2018-12-06T00:38:07.027Z,5.20
2018-12-06T00:40:36.441Z,5.90
2018-12-06T00:43:05.357Z,5.90
2018-12-06T00:45:34.973Z,3.83
2018-12-06T00:48:03.088Z,4.10
2018-12-06T00:50:31.315Z,6.08
2018-12-06T00:52:59.763Z,3.70
2018-12-06T00:55:27.840Z,6.23
2018-12-06T00:57:56.099Z,8.47
2018-12-06T01:00:24.423Z,5.00
2018-12-06T01:02:52.864Z,5.53
2018-12-06T01:05:21.704Z,5.60
2018-12-06T01:07:50.904Z,6.77
2018-12-06T01:10:19.180Z,7.23
2018-12-06T01:12:47.535Z,9.60
2018-12-06T01:15:16.031Z,4.20
2018-12-06T01:17:44.419Z,9.03
2018-12-06T01:20:13.361Z,5.17
2018-12-06T01:22:43.011Z,5.57
2018-12-06T01:25:11.295Z,5.07
2018-12-06T01:27:39.954Z,5.47
2018-12-06T01:30:08.627Z,9.27
2018-12-06T01:32:36.774Z,6.92
2018-12-06T01:35:06.591Z,7.90
2018-12-06T01:37:34.879Z,7.17
2018-12-06T01:40:03.380Z,7.97
2018-12-06T01:42:32.018Z,7.57
2018-12-06T01:45:00.416Z,7.90
2018-12-06T01:47:28.675Z,4.97
2018-12-06T01:49:56.762Z,8.03
2018-12-06T01:52:25.175Z,8.80
2018-12-06T01:54:53.872Z,7.43
2018-12-06T01:57:23.231Z,6.70
2018-12-06T01:59:51.371Z,8.17
2018-12-06T02:02:20.376Z,7.53
2018-12-06T02:04:49.397Z,8.37
2018-12-06T02:07:17.503Z,4.77
2018-12-06T02:09:46.575Z,7.90
2018-12-06T02:12:15.839Z,5.93
2018-12-06T02:14:44.039Z,6.07
2018-12-06T02:17:13.227Z,6.33
2018-12-06T02:20:45.096Z,4.62
2018-12-06T02:23:14.219Z,13.73
2018-12-06T02:25:43.500Z,7.55
2018-12-06T02:28:12.467Z,7.73
2018-12-06T02:30:41.127Z,7.73
2018-12-06T02:33:09.248Z,7.07
2018-12-06T02:35:37.640Z,6.37
2018-12-06T02:38:06.024Z,8.07
2018-12-06T02:40:34.281Z,6.67
2018-12-06T02:43:02.552Z,7.40
2018-12-06T02:45:30.719Z,4.43
2018-12-06T02:47:59.419Z,6.23
2018-12-06T02:50:29.028Z,7.00
2018-12-06T02:52:57.097Z,5.37
2018-12-06T02:55:25.260Z,8.13
2018-12-06T02:57:53.419Z,9.23
2018-12-06T03:00:21.956Z,6.80
2018-12-06T03:02:50.204Z,7.43
2018-12-06T03:05:19.129Z,6.73
2018-12-06T03:07:48.294Z,8.50
2018-12-06T03:10:16.704Z,8.90
2018-12-06T03:12:44.862Z,8.00
2018-12-06T03:15:13.255Z,13.47
2018-12-06T03:17:42.164Z,7.23
2018-12-06T03:20:10.712Z,9.17
2018-12-06T03:22:39.087Z,7.10
2018-12-06T03:25:07.417Z,6.03
2018-12-06T03:27:35.689Z,9.50
2018-12-06T03:30:04.881Z,7.87
2018-12-06T03:32:33.082Z,9.73
2018-12-06T03:35:01.445Z,10.27
2018-12-06T03:37:29.896Z,7.53
2018-12-06T03:39:58.641Z,12.70
2018-12-06T03:42:26.933Z,10.90
2018-12-06T03:44:55.211Z,11.47
2018-12-06T03:47:23.470Z,14.33
2018-12-06T03:49:51.779Z,11.70
2018-12-06T03:52:20.176Z,13.47
2018-12-06T03:54:48.859Z,12.35
2018-12-06T03:57:17.635Z,13.67
2018-12-06T03:59:45.784Z,11.87
2018-12-06T04:02:14.046Z,9.63
2018-12-06T04:04:43.166Z,10.90
2018-12-06T04:07:11.676Z,11.00
2018-12-06T04:09:39.779Z,11.03
2018-12-06T04:12:08.329Z,12.90
2018-12-06T04:14:36.611Z,18.73
2018-12-06T04:17:05.225Z,9.77
2018-12-06T04:19:33.456Z,11.63
2018-12-06T04:22:04.180Z,17.15
2018-12-06T04:24:32.735Z,13.27
2018-12-06T04:27:01.278Z,12.27
2018-12-06T04:29:29.804Z,10.77
2018-12-06T04:31:57.973Z,12.60
2018-12-06T04:34:26.917Z,10.70
2018-12-06T04:36:55.157Z,11.13
2018-12-06T04:39:23.851Z,11.70
2018-12-06T04:41:52.709Z,14.33
2018-12-06T04:44:20.892Z,14.70
2018-12-06T04:50:20.848Z,11.73
2018-12-06T04:52:49.240Z,9.80
2018-12-06T04:55:18.985Z,15.00
2018-12-06T04:57:47.332Z,14.43
2018-12-06T05:00:15.698Z,12.30
2018-12-06T05:02:44.865Z,18.33
2018-12-06T05:05:13.280Z,15.43
2018-12-06T05:07:43.158Z,16.07
2018-12-06T05:10:11.375Z,13.17
2018-12-06T05:12:39.615Z,13.17
2018-12-06T05:15:08.015Z,17.37
2018-12-06T05:17:36.475Z,17.57
2018-12-06T05:20:05.432Z,15.87
2018-12-06T05:22:33.955Z,16.77
2018-12-06T05:25:02.799Z,18.13
2018-12-06T05:27:31.560Z,15.77
2018-12-06T05:30:00.547Z,16.85
2018-12-06T05:32:28.846Z,17.70
2018-12-06T05:34:57.132Z,13.33
2018-12-06T05:37:25.500Z,16.43
2018-12-06T05:39:55.283Z,16.43
2018-12-06T05:42:24.312Z,15.33
2018-12-06T05:44:52.548Z,17.98
2018-12-06T05:47:21.548Z,20.37
2018-12-06T05:49:49.644Z,14.15
2018-12-06T05:52:17.851Z,18.37
2018-12-06T05:54:46.187Z,15.33
2018-12-06T05:57:15.068Z,18.67
2018-12-06T05:59:44.147Z,18.83
2018-12-06T06:02:12.327Z,14.90
2018-12-06T06:04:41.668Z,17.53
2018-12-06T06:07:09.938Z,13.27
2018-12-06T06:09:40.643Z,17.07
2018-12-06T06:12:09.160Z,15.83
2018-12-06T06:14:37.423Z,15.87
2018-12-06T06:17:05.788Z,18.23
2018-12-06T06:19:35.131Z,17.30
2018-12-06T06:22:03.431Z,21.25
2018-12-06T06:24:32.728Z,17.47
2018-12-06T06:27:00.976Z,15.13
2018-12-06T06:29:29.284Z,20.30
2018-12-06T06:31:57.755Z,20.57
2018-12-06T06:34:25.946Z,15.87
2018-12-06T06:36:54.239Z,14.00
2018-12-06T06:39:22.956Z,19.07
2018-12-06T06:41:53.516Z,12.65
2018-12-06T06:44:21.808Z,13.83
2018-12-06T06:46:49.992Z,16.57
2018-12-06T06:49:18.776Z,18.07
2018-12-06T06:51:47.041Z,16.23
2018-12-06T06:54:16.203Z,16.30
2018-12-06T06:56:44.747Z,17.00
2018-12-06T06:59:13.560Z,17.03
2018-12-06T07:01:41.685Z,18.67
2018-12-06T07:04:10.632Z,16.53
2018-12-06T07:06:38.935Z,16.13
2018-12-06T07:09:08.272Z,12.43
2018-12-06T07:11:36.703Z,13.57
2018-12-06T07:14:06.187Z,18.80
2018-12-06T07:16:34.684Z,14.67
2018-12-06T07:19:03.287Z,20.33
2018-12-06T07:21:31.666Z,17.37
2018-12-06T07:23:59.862Z,18.27
2018-12-06T07:26:28.420Z,14.43
2018-12-06T07:28:57.265Z,20.90
2018-12-06T07:31:25.504Z,17.43
2018-12-06T07:33:53.747Z,18.93
2018-12-06T07:36:22.079Z,22.87
2018-12-06T07:38:50.568Z,17.17
2018-12-06T07:41:18.748Z,17.53
2018-12-06T07:43:49.149Z,20.92
2018-12-06T07:46:18.363Z,19.30
2018-12-06T07:48:46.513Z,20.35
2018-12-06T07:51:14.832Z,19.07
2018-12-06T07:53:43.500Z,20.87
2018-12-06T07:56:11.715Z,17.77
2018-12-06T07:58:42.464Z,26.90
2018-12-06T08:01:12.044Z,23.47
2018-12-06T08:03:40.464Z,23.03
2018-12-06T08:06:09.571Z,23.20
2018-12-06T08:08:37.791Z,21.85
2018-12-06T08:11:07.342Z,20.83
2018-12-06T08:13:35.967Z,26.17
2018-12-06T08:16:04.296Z,26.80
2018-12-06T08:18:33.363Z,24.37
2018-12-06T08:21:03.468Z,26.60
2018-12-06T08:23:31.607Z,27.63
2018-12-06T08:26:00.903Z,26.43
2018-12-06T08:28:29.135Z,28.50
2018-12-06T08:30:59.305Z,35.13
2018-12-06T08:33:27.769Z,35.07
2018-12-06T08:35:57.160Z,29.27
2018-12-06T08:38:26.116Z,32.00
2018-12-06T08:40:54.316Z,32.43
2018-12-06T08:43:22.629Z,35.80
2018-12-06T08:45:51.789Z,38.10
2018-12-06T08:48:21.091Z,38.80
2018-12-06T08:50:49.711Z,37.10
2018-12-06T08:53:18.350Z,31.90
2018-12-06T08:55:47.304Z,36.93
2018-12-06T08:58:16.331Z,39.27
2018-12-06T09:00:44.935Z,39.03
2018-12-06T09:03:13.536Z,35.90
2018-12-06T09:05:43.118Z,33.45
2018-12-06T09:08:11.452Z,39.73
2018-12-06T09:10:40.736Z,41.40
2018-12-06T09:13:09.039Z,38.20
2018-12-06T09:15:37.833Z,37.30
2018-12-06T09:18:06.404Z,35.20
2018-12-06T09:20:35.016Z,44.60
2018-12-06T09:23:03.772Z,34.60
2018-12-06T09:25:33.056Z,39.30
2018-12-06T09:28:01.743Z,40.13
2018-12-06T09:30:31.435Z,38.33
2018-12-06T09:32:59.707Z,33.47
2018-12-06T09:35:27.872Z,33.93
2018-12-06T09:37:56.587Z,40.13
2018-12-06T09:40:24.915Z,39.77
2018-12-06T09:42:53.023Z,43.13
2018-12-06T09:45:22.175Z,43.07
2018-12-06T09:47:50.441Z,37.30
2018-12-06T09:50:18.687Z,39.20
2018-12-06T09:52:47.688Z,40.28
2018-12-06T09:55:15.919Z,39.10
2018-12-06T09:57:44.228Z,38.90
2018-12-06T10:00:15.379Z,38.28
2018-12-06T10:02:43.772Z,37.93
2018-12-06T10:05:12.331Z,37.07
2018-12-06T10:07:41.218Z,36.30
2018-12-06T10:10:09.741Z,42.33
2018-12-06T10:12:38.005Z,41.83
2018-12-06T10:15:06.884Z,43.30
2018-12-06T10:18:38.368Z,45.20
2018-12-06T10:21:07.068Z,39.20
2018-12-06T10:23:35.431Z,45.83
2018-12-06T10:26:03.761Z,50.50
2018-12-06T10:28:32.056Z,41.37
2018-12-06T10:31:00.712Z,44.27
2018-12-06T10:33:28.981Z,48.67
2018-12-06T10:35:57.719Z,43.07
2018-12-06T10:38:25.879Z,43.10
2018-12-06T10:40:54.305Z,45.03
2018-12-06T10:43:22.468Z,45.47
2018-12-06T10:45:51.588Z,35.70
2018-12-06T10:48:19.851Z,46.37
2018-12-06T10:50:48.294Z,46.50
2018-12-06T10:53:16.960Z,46.37
2018-12-06T10:55:45.295Z,47.03
2018-12-06T10:58:13.532Z,50.23
2018-12-06T11:00:47.189Z,46.37
2018-12-06T11:03:21.449Z,41.03
2018-12-06T11:05:50.210Z,48.10
2018-12-06T11:08:18.489Z,45.87
2018-12-06T11:10:46.998Z,49.23
2018-12-06T11:13:15.098Z,44.27
2018-12-06T11:15:43.351Z,45.53
2018-12-06T11:18:11.447Z,43.67
2018-12-06T11:20:40.098Z,41.93
2018-12-06T11:23:08.268Z,49.10
2018-12-06T11:25:36.595Z,52.70
2018-12-06T11:28:04.943Z,46.30
2018-12-06T11:30:33.931Z,48.03
2018-12-06T11:33:02.155Z,45.00
2018-12-06T11:35:30.435Z,49.97
2018-12-06T11:37:59.220Z,45.33
2018-12-06T11:40:29.004Z,50.37
2018-12-06T11:42:57.735Z,56.30
2018-12-06T11:45:25.817Z,45.73
2018-12-06T11:47:54.023Z,47.90
2018-12-06T11:50:22.308Z,51.77
2018-12-06T11:52:50.955Z,46.47
2018-12-06T11:55:19.723Z,51.47
2018-12-06T11:57:48.209Z,47.67
2018-12-06T12:00:16.703Z,47.83
2018-12-06T12:02:45.375Z,48.00
2018-12-06T12:05:13.704Z,41.33
2018-12-06T12:07:42.143Z,44.63
2018-12-06T12:10:10.591Z,40.70
2018-12-06T12:12:39.312Z,45.20
2018-12-06T12:15:08.785Z,45.00
2018-12-06T12:17:37.572Z,43.08
2018-12-06T12:20:06.611Z,43.73
2018-12-06T12:22:36.343Z,44.48
2018-12-06T12:25:05.688Z,49.53
2018-12-06T12:27:34.861Z,47.30
2018-12-06T12:30:04.167Z,47.40
2018-12-06T12:32:32.423Z,55.03
2018-12-06T12:35:02.775Z,47.07
2018-12-06T12:37:31.664Z,53.50
2018-12-06T12:40:00.243Z,49.73
2018-12-06T12:42:30.108Z,47.97
2018-12-06T12:44:58.607Z,48.33
2018-12-06T12:47:26.686Z,47.33
2018-12-06T12:49:54.831Z,50.67
2018-12-06T12:52:23.497Z,48.17
2018-12-06T12:54:51.756Z,50.83
2018-12-06T12:57:20.803Z,49.33
2018-12-06T12:59:49.307Z,42.33
2018-12-06T13:02:17.655Z,45.90
2018-12-06T13:04:45.919Z,46.80
2018-12-06T13:07:14.727Z,43.17
2018-12-06T13:09:43.364Z,52.20
2018-12-06T13:12:12.749Z,52.50
2018-12-06T13:14:41.707Z,49.27
2018-12-06T13:17:10.804Z,49.37
2018-12-06T13:19:38.955Z,45.70
2018-12-06T13:22:09.270Z,53.00
2018-12-06T13:24:39.322Z,57.83
2018-12-06T13:27:08.741Z,52.63
2018-12-06T13:29:38.536Z,51.15
2018-12-06T13:32:07.968Z,54.53
2018-12-06T13:34:37.834Z,50.00
2018-12-06T13:37:06.461Z,46.83
2018-12-06T13:39:36.712Z,55.83
2018-12-06T13:42:04.983Z,53.63
2018-12-06T13:44:33.169Z,61.03
2018-12-06T13:47:01.443Z,60.40
2018-12-06T13:49:30.479Z,55.10
2018-12-06T13:52:02.076Z,53.00
2018-12-06T13:54:30.170Z,56.50
2018-12-06T13:57:00.000Z,55.73
2018-12-06T13:59:29.016Z,58.83
2018-12-06T14:01:57.092Z,57.27
2018-12-06T14:04:25.904Z,61.87
2018-12-06T14:06:54.375Z,59.20
2018-12-06T14:09:23.590Z,64.07
2018-12-06T14:11:52.155Z,60.93
2018-12-06T14:14:20.348Z,56.53
2018-12-06T14:16:48.439Z,70.37
2018-12-06T14:19:17.663Z,64.80
2018-12-06T14:21:45.740Z,57.40
2018-12-06T14:24:14.664Z,64.73
2018-12-06T14:26:42.915Z,67.10
2018-12-06T14:29:11.256Z,70.20
2018-12-06T14:31:39.600Z,74.07
2018-12-06T14:34:08.651Z,65.50
2018-12-06T14:36:37.300Z,66.70
2018-12-06T14:39:09.330Z,56.43
